createdAt,value
2022-10-14T00:02:06.796Z,55.77
2022-10-14T00:04:33.467Z,49.03
2022-10-14T00:07:00.087Z,63.53
2022-10-14T00:09:26.775Z,51.17
2022-10-14T00:11:53.394Z,58.53
2022-10-14T00:14:21.151Z,63.00
2022-10-14T00:16:52.055Z,53.17
2022-10-14T00:19:18.701Z,59.70
2022-10-14T00:21:46.088Z,62.67
2022-10-14T00:24:14.053Z,62.80
2022-10-14T00:26:41.256Z,59.17
2022-10-14T00:29:12.884Z,67.60
2022-10-14T00:31:39.679Z,54.87
2022-10-14T00:34:06.372Z,60.93
2022-10-14T00:36:33.059Z,61.77
2022-10-14T00:38:59.847Z,64.83
2022-10-14T00:41:31.612Z,71.57
2022-10-14T00:44:07.889Z,56.90
2022-10-14T00:46:37.715Z,60.93
2022-10-14T00:49:10.403Z,63.83
2022-10-14T00:51:38.490Z,71.77
2022-10-14T00:54:05.671Z,78.40
2022-10-14T00:56:33.316Z,57.00
2022-10-14T00:59:02.438Z,59.50
2022-10-14T01:01:29.084Z,56.13
2022-10-14T01:03:55.714Z,68.97
2022-10-14T01:06:48.614Z,63.20
2022-10-14T01:09:33.595Z,65.23
2022-10-14T01:12:29.394Z,63.33
2022-10-14T01:15:33.175Z,57.47
2022-10-14T01:18:08.751Z,51.50
2022-10-14T01:21:02.459Z,63.23
2022-10-14T01:24:02.618Z,66.40
2022-10-14T01:27:13.715Z,68.83
2022-10-14T01:30:02.641Z,68.30
2022-10-14T01:32:38.703Z,63.73
2022-10-14T01:35:10.073Z,60.17
2022-10-14T01:37:41.263Z,64.20
2022-10-14T01:40:13.825Z,56.57
2022-10-14T01:42:44.223Z,63.27
2022-10-14T01:45:19.976Z,66.57
2022-10-14T01:47:50.109Z,70.10
2022-10-14T01:50:20.040Z,60.13
2022-10-14T01:52:58.454Z,61.67
2022-10-14T01:55:30.403Z,75.20
2022-10-14T01:57:58.486Z,66.87
2022-10-14T02:00:25.259Z,64.27
2022-10-14T02:02:51.874Z,76.77
2022-10-14T02:05:32.081Z,59.07
2022-10-14T02:08:10.933Z,61.27
2022-10-14T02:10:49.552Z,63.70
2022-10-14T02:13:43.400Z,64.50
2022-10-14T02:16:18.006Z,70.77
2022-10-14T02:19:10.365Z,67.47
2022-10-14T02:21:48.150Z,64.00
2022-10-14T02:24:33.173Z,64.10
2022-10-14T02:27:04.775Z,67.03
2022-10-14T02:29:33.178Z,66.30
2022-10-14T02:32:02.060Z,65.50
2022-10-14T02:34:28.709Z,64.17
2022-10-14T02:36:56.335Z,70.03
2022-10-14T02:39:31.199Z,78.50
2022-10-14T02:41:58.119Z,69.17
2022-10-14T02:44:24.772Z,68.33
2022-10-14T02:46:51.373Z,70.87
2022-10-14T02:49:18.202Z,58.87
2022-10-14T02:51:44.904Z,70.63
2022-10-14T02:54:11.569Z,69.07
2022-10-14T02:56:38.213Z,64.57
2022-10-14T02:59:04.842Z,75.53
2022-10-14T03:01:35.135Z,72.47
2022-10-14T03:04:04.100Z,64.33
2022-10-14T03:06:30.745Z,76.77
2022-10-14T03:08:57.352Z,68.27
2022-10-14T03:11:23.979Z,71.90
2022-10-14T03:13:50.576Z,83.67
2022-10-14T03:16:17.247Z,74.50
2022-10-14T03:18:44.007Z,72.77
2022-10-14T03:21:10.963Z,69.40
2022-10-14T03:23:37.590Z,82.10
2022-10-14T03:26:04.480Z,72.93
2022-10-14T03:28:31.296Z,75.80
2022-10-14T03:30:57.958Z,72.90
2022-10-14T03:33:26.381Z,77.97
2022-10-14T03:35:53.458Z,78.83
2022-10-14T03:38:20.365Z,83.03
2022-10-14T03:40:46.998Z,78.63
2022-10-14T03:43:13.601Z,85.80
2022-10-14T03:45:40.278Z,76.90
2022-10-14T03:48:07.001Z,74.07
2022-10-14T03:50:33.697Z,79.33
2022-10-14T03:53:00.341Z,74.27
2022-10-14T03:55:27.220Z,77.30
2022-10-14T03:57:53.994Z,73.57
2022-10-14T04:00:20.807Z,98.00
2022-10-14T04:02:47.574Z,71.83
2022-10-14T04:05:14.528Z,75.00
2022-10-14T04:07:41.145Z,79.80
2022-10-14T04:10:08.342Z,79.97
2022-10-14T04:12:35.130Z,74.37
2022-10-14T04:15:01.887Z,79.00
2022-10-14T04:17:28.633Z,75.33
2022-10-14T04:19:55.269Z,81.10
2022-10-14T04:22:23.277Z,80.13
2022-10-14T04:24:50.350Z,79.20
2022-10-14T04:27:17.670Z,78.17
2022-10-14T04:29:44.582Z,73.60
2022-10-14T04:32:11.277Z,72.67
2022-10-14T04:34:38.016Z,72.73
2022-10-14T04:37:04.643Z,78.60
2022-10-14T04:39:31.248Z,87.37
2022-10-14T04:41:57.855Z,72.40
2022-10-14T04:44:24.510Z,73.43
2022-10-14T04:46:51.126Z,69.97
2022-10-14T04:49:17.780Z,73.37
2022-10-14T04:51:44.438Z,71.63
2022-10-14T04:54:11.333Z,78.03
2022-10-14T04:56:38.115Z,67.83
2022-10-14T04:59:05.840Z,76.47
2022-10-14T05:01:34.153Z,74.80
2022-10-14T05:04:00.906Z,87.80
2022-10-14T05:06:27.533Z,74.23
2022-10-14T05:08:54.116Z,88.30
2022-10-14T05:11:21.067Z,71.90
2022-10-14T05:13:47.778Z,82.37
2022-10-14T05:16:14.658Z,64.53
2022-10-14T05:18:41.408Z,74.20
2022-10-14T05:21:08.024Z,78.77
2022-10-14T05:23:34.663Z,71.10
2022-10-14T05:26:01.286Z,80.17
2022-10-14T05:28:27.984Z,86.63
2022-10-14T05:30:55.423Z,87.13
2022-10-14T05:33:22.223Z,77.70
2022-10-14T05:36:04.122Z,74.37
2022-10-14T05:38:34.218Z,74.57
2022-10-14T05:41:01.894Z,73.80
2022-10-14T05:43:32.476Z,73.67
2022-10-14T05:46:00.213Z,75.40
2022-10-14T05:48:26.918Z,79.50
2022-10-14T05:50:53.566Z,84.00
2022-10-14T05:53:20.241Z,85.53
2022-10-14T05:55:46.834Z,86.80
2022-10-14T05:58:13.435Z,77.50
2022-10-14T06:00:40.154Z,87.57
2022-10-14T06:03:06.828Z,85.87
2022-10-14T06:05:36.591Z,83.90
2022-10-14T06:08:03.513Z,83.57
2022-10-14T06:10:30.220Z,78.57
2022-10-14T06:12:57.198Z,85.17
2022-10-14T06:15:24.083Z,76.60
2022-10-14T06:17:50.686Z,82.30
2022-10-14T06:20:17.354Z,72.60
2022-10-14T06:22:44.051Z,79.90
2022-10-14T06:25:10.736Z,79.50
2022-10-14T06:27:37.455Z,80.00
2022-10-14T06:30:04.495Z,85.40
2022-10-14T06:32:31.407Z,79.47
2022-10-14T06:34:58.206Z,70.47
2022-10-14T06:37:24.848Z,78.93
2022-10-14T06:39:51.464Z,88.00
2022-10-14T06:42:18.084Z,75.50
2022-10-14T06:44:45.297Z,74.50
2022-10-14T06:47:12.041Z,81.97
2022-10-14T06:49:38.655Z,74.23
2022-10-14T06:52:05.318Z,77.93
2022-10-14T06:54:36.783Z,80.03
2022-10-14T06:57:06.206Z,73.67
2022-10-14T06:59:32.842Z,80.20
2022-10-14T07:01:59.526Z,73.90
2022-10-14T07:04:26.271Z,73.00
2022-10-14T07:06:52.960Z,73.50
2022-10-14T07:09:19.608Z,82.17
2022-10-14T07:11:46.223Z,76.73
2022-10-14T07:14:12.981Z,82.67
2022-10-14T07:16:39.694Z,80.93
2022-10-14T07:19:06.332Z,72.53
2022-10-14T07:21:32.940Z,82.40
2022-10-14T07:23:59.603Z,67.93
2022-10-14T07:26:26.334Z,87.67
2022-10-14T07:28:53.104Z,82.93
2022-10-14T07:31:19.729Z,83.30
2022-10-14T07:33:46.338Z,84.10
2022-10-14T07:36:18.576Z,67.50
2022-10-14T07:38:48.421Z,79.93
2022-10-14T07:41:21.227Z,78.27
2022-10-14T07:43:50.282Z,74.43
2022-10-14T07:46:28.446Z,81.33
2022-10-14T07:49:00.973Z,80.90
2022-10-14T07:51:28.404Z,78.60
2022-10-14T07:53:56.906Z,86.60
2022-10-14T07:56:24.158Z,73.60
2022-10-14T07:58:50.866Z,85.77
2022-10-14T08:01:18.867Z,83.00
2022-10-14T08:03:47.229Z,77.53
2022-10-14T08:06:14.656Z,74.80
2022-10-14T08:08:42.539Z,76.07
2022-10-14T08:11:23.511Z,72.23
2022-10-14T08:13:51.515Z,74.43
2022-10-14T08:16:26.690Z,76.03
2022-10-14T08:18:55.402Z,92.43
2022-10-14T08:21:22.503Z,75.73
2022-10-14T08:23:49.348Z,71.10
2022-10-14T08:26:19.003Z,59.90
2022-10-14T08:28:45.758Z,84.97
2022-10-14T08:31:12.369Z,57.73
2022-10-14T08:33:39.020Z,59.40
2022-10-14T08:36:05.901Z,55.77
2022-10-14T08:38:32.567Z,51.93
2022-10-14T08:41:14.671Z,53.33
2022-10-14T08:44:16.909Z,58.93
2022-10-14T08:46:56.240Z,49.50
2022-10-14T08:49:49.532Z,53.57
2022-10-14T08:52:21.070Z,50.07
2022-10-14T08:54:55.893Z,50.13
2022-10-14T08:57:27.226Z,50.73
2022-10-14T08:59:54.457Z,51.23
2022-10-14T09:02:38.029Z,54.83
2022-10-14T09:05:06.090Z,49.23
2022-10-14T09:07:35.427Z,44.03
2022-10-14T09:10:07.318Z,48.33
2022-10-14T09:12:35.807Z,56.07
2022-10-14T09:15:16.314Z,43.50
2022-10-14T09:17:57.030Z,54.40
2022-10-14T09:20:25.230Z,43.87
2022-10-14T09:23:16.879Z,45.70
2022-10-14T09:26:11.809Z,44.67
2022-10-14T09:28:41.061Z,47.87
2022-10-14T09:31:12.038Z,41.03
2022-10-14T09:33:42.311Z,40.83
2022-10-14T09:36:20.961Z,39.60
2022-10-14T09:38:52.684Z,42.50
2022-10-14T09:41:25.164Z,41.90
2022-10-14T09:44:21.141Z,41.60
2022-10-14T09:46:55.461Z,48.43
2022-10-14T09:49:33.991Z,50.90
2022-10-14T09:52:02.658Z,62.27
2022-10-14T09:54:31.071Z,50.67
2022-10-14T09:57:07.951Z,54.23
2022-10-14T09:59:49.089Z,50.03
2022-10-14T10:02:36.085Z,50.93
2022-10-14T10:05:13.798Z,45.40
2022-10-14T10:07:40.470Z,38.53
2022-10-14T10:10:21.963Z,41.87
2022-10-14T10:12:48.790Z,36.90
2022-10-14T10:15:21.392Z,39.43
2022-10-14T10:17:49.630Z,42.00
2022-10-14T10:20:19.237Z,38.83
2022-10-14T10:22:46.622Z,35.63
2022-10-14T10:25:13.803Z,38.87
2022-10-14T10:27:50.947Z,42.37
2022-10-14T10:30:17.843Z,44.03
2022-10-14T10:33:19.539Z,39.30
2022-10-14T10:35:57.867Z,40.60
2022-10-14T10:38:31.308Z,43.63
2022-10-14T10:41:25.638Z,41.97
2022-10-14T10:44:10.543Z,42.43
2022-10-14T10:46:54.998Z,38.53
2022-10-14T10:49:53.716Z,38.03
2022-10-14T10:52:35.111Z,34.07
2022-10-14T10:55:25.295Z,44.63
2022-10-14T10:58:19.887Z,38.80
2022-10-14T11:01:10.300Z,37.43
2022-10-14T11:04:06.131Z,34.60
2022-10-14T11:07:18.250Z,35.60
2022-10-14T11:10:39.057Z,39.40
2022-10-14T11:13:17.339Z,32.17
2022-10-14T11:16:07.454Z,33.60
2022-10-14T11:18:52.994Z,35.03
2022-10-14T11:21:43.759Z,31.63
2022-10-14T11:24:23.738Z,34.57
2022-10-14T11:27:15.380Z,28.80
2022-10-14T11:30:13.780Z,28.67
2022-10-14T11:33:02.024Z,29.87
2022-10-14T11:35:50.696Z,33.40
2022-10-14T11:38:54.270Z,31.40
2022-10-14T11:41:33.182Z,41.23
2022-10-14T11:44:14.306Z,35.50
2022-10-14T11:46:46.772Z,35.00
2022-10-14T11:49:29.841Z,42.13
2022-10-14T11:52:03.067Z,33.33
2022-10-14T11:54:44.850Z,36.83
2022-10-14T11:57:31.747Z,34.73
2022-10-14T12:00:24.501Z,39.43
2022-10-14T12:03:10.025Z,36.10
2022-10-14T12:05:55.436Z,34.90
2022-10-14T12:08:40.285Z,28.47
2022-10-14T12:11:14.409Z,28.87
2022-10-14T12:13:47.971Z,31.43
2022-10-14T12:16:18.323Z,32.20
2022-10-14T12:18:49.279Z,27.90
2022-10-14T12:21:35.625Z,35.80
2022-10-14T12:24:09.360Z,30.60
2022-10-14T12:26:49.644Z,28.57
2022-10-14T12:29:27.667Z,34.37
2022-10-14T12:32:03.532Z,33.03
2022-10-14T12:34:33.063Z,38.40
2022-10-14T12:36:59.773Z,33.10
2022-10-14T12:39:34.686Z,29.20
2022-10-14T12:42:09.835Z,30.30
2022-10-14T12:45:01.181Z,31.00
2022-10-14T12:47:36.347Z,29.30
2022-10-14T12:50:26.302Z,31.07
2022-10-14T12:53:08.332Z,23.03
2022-10-14T12:55:50.676Z,22.93
2022-10-14T12:58:42.354Z,19.23
2022-10-14T13:01:19.208Z,21.50
2022-10-14T13:03:54.421Z,18.43
2022-10-14T13:06:29.182Z,16.40
2022-10-14T13:09:16.908Z,15.57
2022-10-14T13:11:46.458Z,15.57
2022-10-14T13:14:35.381Z,16.10
2022-10-14T13:17:04.191Z,16.93
2022-10-14T13:19:33.854Z,19.67
2022-10-14T13:22:33.144Z,16.80
2022-10-14T13:25:16.826Z,19.40
2022-10-14T13:28:04.272Z,24.33
2022-10-14T13:30:58.594Z,18.27
2022-10-14T13:33:53.837Z,17.10
2022-10-14T13:36:53.823Z,22.43
2022-10-14T13:39:20.450Z,20.30
2022-10-14T13:41:47.913Z,20.60
2022-10-14T13:44:14.936Z,20.90
2022-10-14T13:46:44.134Z,21.43
2022-10-14T13:49:18.160Z,26.93
2022-10-14T13:51:50.808Z,22.63
2022-10-14T13:54:19.137Z,17.80
2022-10-14T13:57:19.828Z,21.00
2022-10-14T14:00:38.157Z,18.80
2022-10-14T14:02:35.451Z,16.83
2022-10-14T14:05:02.244Z,19.90
2022-10-14T14:08:30.048Z,16.77
2022-10-14T14:10:24.844Z,22.67
2022-10-14T14:12:52.265Z,18.53
2022-10-14T14:15:24.116Z,19.67
2022-10-14T14:17:50.955Z,19.30
2022-10-14T14:20:24.111Z,19.23
2022-10-14T14:22:51.215Z,19.17
2022-10-14T14:25:34.360Z,16.53
2022-10-14T14:28:05.675Z,18.40
2022-10-14T14:30:34.836Z,19.97
2022-10-14T14:33:13.333Z,14.87
2022-10-14T14:35:52.006Z,19.73
2022-10-14T14:38:36.944Z,18.00
2022-10-14T14:41:17.385Z,14.47
2022-10-14T14:43:50.121Z,18.20
2022-10-14T14:46:36.876Z,17.50
2022-10-14T14:49:05.246Z,17.30
2022-10-14T14:51:37.680Z,17.70
2022-10-14T14:54:05.839Z,19.47
2022-10-14T14:56:43.973Z,20.07
2022-10-14T14:59:35.438Z,18.23
2022-10-14T15:02:04.880Z,16.10
2022-10-14T15:04:34.895Z,23.20
2022-10-14T15:07:11.579Z,18.97
2022-10-14T15:09:42.801Z,18.73
2022-10-14T15:12:18.850Z,23.13
2022-10-14T15:14:47.527Z,22.40
2022-10-14T15:17:29.220Z,25.43
2022-10-14T15:19:58.119Z,19.53
2022-10-14T15:22:33.768Z,19.87
2022-10-14T15:25:02.264Z,16.60
2022-10-14T15:27:37.428Z,17.83
2022-10-14T15:30:17.369Z,18.73
2022-10-14T15:32:44.666Z,21.83
2022-10-14T15:35:16.420Z,15.07
2022-10-14T15:37:43.097Z,18.87
2022-10-14T15:40:13.006Z,17.77
2022-10-14T15:42:39.617Z,17.33
2022-10-14T15:45:06.977Z,20.63
2022-10-14T15:47:33.653Z,18.00
2022-10-14T15:50:00.411Z,20.10
2022-10-14T15:52:29.500Z,19.07
2022-10-14T15:54:58.248Z,17.87
2022-10-14T15:57:25.243Z,25.50
2022-10-14T15:59:53.205Z,24.10
2022-10-14T16:02:26.020Z,20.47
2022-10-14T16:05:18.803Z,17.13
2022-10-14T16:07:41.073Z,20.67
2022-10-14T16:10:11.040Z,16.93
2022-10-14T16:12:37.730Z,23.70
2022-10-14T16:15:34.894Z,37.20
2022-10-14T16:18:02.023Z,20.33
2022-10-14T16:20:30.739Z,22.00
2022-10-14T16:22:58.594Z,32.53
2022-10-14T16:25:43.945Z,18.97
2022-10-14T16:28:11.658Z,24.80
2022-10-14T16:30:40.654Z,41.27
2022-10-14T16:33:07.563Z,28.07
2022-10-14T16:35:34.230Z,26.67
2022-10-14T16:38:00.839Z,19.17
2022-10-14T16:40:27.513Z,15.17
2022-10-14T16:42:54.168Z,17.77
2022-10-14T16:45:20.771Z,20.77
2022-10-14T16:47:47.418Z,18.80
2022-10-14T16:50:14.011Z,25.10
2022-10-14T16:53:02.163Z,23.13
2022-10-14T16:55:31.902Z,34.10
2022-10-14T16:57:58.520Z,19.67
2022-10-14T17:00:25.583Z,16.97
2022-10-14T17:02:52.219Z,17.80
2022-10-14T17:05:18.823Z,18.30
2022-10-14T17:07:45.419Z,22.83
2022-10-14T17:10:12.151Z,30.03
2022-10-14T17:12:39.395Z,22.03
2022-10-14T17:15:06.768Z,24.73
2022-10-14T17:17:33.349Z,19.03
2022-10-14T17:19:59.960Z,18.43
2022-10-14T17:22:26.880Z,22.23
2022-10-14T17:24:54.847Z,20.37
2022-10-14T17:27:24.155Z,24.30
2022-10-14T17:29:50.962Z,30.27
2022-10-14T17:32:18.317Z,26.03
2022-10-14T17:34:44.999Z,21.90
2022-10-14T17:37:11.643Z,23.00
2022-10-14T17:39:38.494Z,24.20
2022-10-14T17:42:05.115Z,35.07
2022-10-14T17:44:32.670Z,31.70
2022-10-14T17:47:00.819Z,21.40
2022-10-14T17:49:27.648Z,14.80
2022-10-14T17:51:54.236Z,16.40
2022-10-14T17:54:20.969Z,14.57
2022-10-14T17:56:47.622Z,17.90
2022-10-14T17:59:14.385Z,16.73
2022-10-14T18:02:01.542Z,12.57
2022-10-14T18:04:27.806Z,16.00
2022-10-14T18:06:54.436Z,14.70
2022-10-14T18:09:21.228Z,14.73
2022-10-14T18:14:37.886Z,15.27
2022-10-14T18:17:05.241Z,11.47
2022-10-14T18:19:32.103Z,13.80
2022-10-14T18:21:58.718Z,10.37
2022-10-14T18:24:25.507Z,13.47
2022-10-14T18:26:53.257Z,22.83
2022-10-14T18:29:20.191Z,18.53
2022-10-14T18:31:49.192Z,13.17
2022-10-14T18:34:15.874Z,15.80
2022-10-14T18:36:42.664Z,13.53
2022-10-14T18:39:11.805Z,11.70
2022-10-14T18:41:38.445Z,13.40
2022-10-14T18:44:06.325Z,10.40
2022-10-14T18:46:35.680Z,16.33
2022-10-14T18:49:04.533Z,10.53
2022-10-14T18:51:34.977Z,9.70
2022-10-14T18:54:07.801Z,17.23
2022-10-14T18:56:38.809Z,15.00
2022-10-14T18:59:12.511Z,11.20
2022-10-14T19:01:39.899Z,17.10
2022-10-14T19:04:08.578Z,11.40
2022-10-14T19:06:35.735Z,11.20
2022-10-14T19:09:03.033Z,12.20
2022-10-14T19:11:30.611Z,9.67
2022-10-14T19:13:58.730Z,18.93
2022-10-14T19:16:26.726Z,11.30
2022-10-14T19:19:04.548Z,13.73
2022-10-14T19:21:32.083Z,13.27
2022-10-14T19:24:00.289Z,10.40
2022-10-14T19:26:32.767Z,13.83
2022-10-14T19:29:01.318Z,9.97
2022-10-14T19:31:31.064Z,16.23
2022-10-14T19:34:01.206Z,10.77
2022-10-14T19:36:28.261Z,12.60
2022-10-14T19:38:59.964Z,90.23
2022-10-14T19:41:28.936Z,22.20
2022-10-14T19:43:57.842Z,11.70
2022-10-14T19:46:29.595Z,15.23
2022-10-14T19:49:02.261Z,12.30
2022-10-14T19:51:29.355Z,13.13
2022-10-14T19:53:56.627Z,10.77
2022-10-14T19:56:24.763Z,10.00
2022-10-14T19:58:53.751Z,12.97
2022-10-14T20:01:23.679Z,12.00
2022-10-14T20:03:50.560Z,10.80
2022-10-14T20:06:17.474Z,11.53
2022-10-14T20:08:45.296Z,8.33
2022-10-14T20:11:17.162Z,9.10
2022-10-14T20:13:44.615Z,8.17
2022-10-14T20:16:12.063Z,10.97
2022-10-14T20:18:38.841Z,9.20
2022-10-14T20:21:07.382Z,7.10
2022-10-14T20:23:39.757Z,8.00
2022-10-14T20:26:11.215Z,10.83
2022-10-14T20:28:38.815Z,10.60
2022-10-14T20:31:17.666Z,8.00
2022-10-14T20:33:44.578Z,7.33
2022-10-14T20:36:17.798Z,8.63
2022-10-14T20:38:44.678Z,8.83
2022-10-14T20:41:24.918Z,7.77
2022-10-14T20:43:53.710Z,15.10
2022-10-14T20:46:21.752Z,8.60
2022-10-14T20:48:48.447Z,12.13
2022-10-14T20:51:17.822Z,11.93
2022-10-14T20:53:44.444Z,9.07
2022-10-14T20:56:13.308Z,30.33
2022-10-14T20:58:40.418Z,11.80
2022-10-14T21:01:13.741Z,10.33
2022-10-14T21:03:41.747Z,8.40
2022-10-14T21:06:11.074Z,7.30
2022-10-14T21:08:38.237Z,9.60
2022-10-14T21:11:10.559Z,12.27
2022-10-14T21:13:42.780Z,9.33
2022-10-14T21:16:14.034Z,10.10
2022-10-14T21:18:40.745Z,9.97
2022-10-14T21:21:08.076Z,13.47
2022-10-14T21:23:36.153Z,11.53
2022-10-14T21:26:02.768Z,8.77
2022-10-14T21:28:29.561Z,10.13
2022-10-14T21:30:56.187Z,11.00
2022-10-14T21:33:22.843Z,8.40
2022-10-14T21:35:49.472Z,10.93
2022-10-14T21:38:16.114Z,9.40
2022-10-14T21:40:42.724Z,11.63
2022-10-14T21:43:09.382Z,9.00
2022-10-14T21:45:35.955Z,9.17
2022-10-14T21:48:02.575Z,9.77
2022-10-14T21:50:29.198Z,7.20
2022-10-14T21:52:55.851Z,9.47
2022-10-14T21:55:22.462Z,12.73
2022-10-14T21:57:51.418Z,16.43
2022-10-14T22:00:18.289Z,51.87
2022-10-14T22:02:44.917Z,29.60
2022-10-14T22:05:11.579Z,14.60
2022-10-14T22:07:38.170Z,9.57
2022-10-14T22:10:25.092Z,12.03
2022-10-14T22:12:51.669Z,13.03
2022-10-14T22:15:18.439Z,10.53
2022-10-14T22:17:45.041Z,10.97
2022-10-14T22:20:11.767Z,11.23
2022-10-14T22:22:38.352Z,8.57
2022-10-14T22:25:05.424Z,12.80
2022-10-14T22:27:32.027Z,19.57
2022-10-14T22:29:59.440Z,10.00
2022-10-14T22:32:26.091Z,9.57
2022-10-14T22:34:52.686Z,11.70
2022-10-14T22:37:20.052Z,12.70
2022-10-14T22:39:46.937Z,8.40
2022-10-14T22:42:13.510Z,12.00
2022-10-14T22:44:40.094Z,10.97
2022-10-14T22:47:06.708Z,11.53
2022-10-14T22:49:33.358Z,11.57
2022-10-14T22:51:59.931Z,8.60
2022-10-14T22:54:26.934Z,13.63
2022-10-14T22:56:53.737Z,10.00
2022-10-14T22:59:20.337Z,15.10
2022-10-14T23:01:46.916Z,10.47
2022-10-14T23:04:13.618Z,11.60
2022-10-14T23:06:43.568Z,18.17
2022-10-14T23:09:10.326Z,55.87
2022-10-14T23:11:36.924Z,17.23
2022-10-14T23:14:07.175Z,16.57
2022-10-14T23:16:34.539Z,16.90
2022-10-14T23:19:01.151Z,14.00
2022-10-14T23:21:30.103Z,13.97
2022-10-14T23:23:59.186Z,12.33
2022-10-14T23:26:28.773Z,15.57
2022-10-14T23:28:57.618Z,16.53
2022-10-14T23:31:27.795Z,17.20
2022-10-14T23:33:55.023Z,15.50
2022-10-14T23:36:22.311Z,13.47
2022-10-14T23:38:49.810Z,15.30
2022-10-14T23:41:16.442Z,15.10
2022-10-14T23:43:43.250Z,19.40
2022-10-14T23:46:09.934Z,14.70
2022-10-14T23:48:37.029Z,17.47
2022-10-14T23:51:04.236Z,18.30
2022-10-14T23:53:30.996Z,17.63
2022-10-14T23:55:58.095Z,12.90
2022-10-14T23:58:28.369Z,15.13
